I2476 LICJ-LICR
Flight info
| Callsign | I2476 |
|---|---|
| Flight time | N/A |
| Altitude | 25000 |
| Route | PAL6R PAL M871 NOTRI Q72 BERMI BERM1Q |
| Aircraft | A320/M-S/7123 |
Departure
| Time | N/A |
|---|---|
| Airport | Falcone–Borsellino Airport (LICJ) |
Arrival
| Time | 2026-05-06 16:39 |
|---|---|
| Airport | Reggio Calabria Airport (LICR) |
| Time | Latitude | Longitude | Altitude | Speed | Heading |
|---|---|---|---|---|---|
| 2026-05-06 15:59 | 38.16748 | 13.08641 | 0 ft | 0 kts | 24° |
| 2026-05-06 15:59 | 38.16783 | 13.08660 | 0 ft | 30 kts | 24° |
| 2026-05-06 15:59 | 38.17188 | 13.08886 | 0 ft | 100 kts | 24° |
| 2026-05-06 15:59 | 38.18022 | 13.09321 | 0 ft | 157 kts | 18° |
| 2026-05-06 16:00 | 38.19091 | 13.09790 | 0 ft | 174 kts | 19° |
| 2026-05-06 16:00 | 38.20276 | 13.10315 | 0 ft | 186 kts | 21° |
| 2026-05-06 16:00 | 38.21295 | 13.11326 | 0 ft | 202 kts | 66° |
| 2026-05-06 16:00 | 38.21401 | 13.13129 | 0 ft | 220 kts | 110° |
| 2026-05-06 16:01 | 38.20882 | 13.14878 | 0 ft | 219 kts | 108° |
| 2026-05-06 16:01 | 38.20588 | 13.16679 | 0 ft | 219 kts | 92° |
| 2026-05-06 16:01 | 38.20797 | 13.18337 | 0 ft | 228 kts | 64° |
| 2026-05-06 16:01 | 38.21569 | 13.20071 | 0 ft | 229 kts | 56° |
| 2026-05-06 16:02 | 38.22462 | 13.21702 | 0 ft | 224 kts | 53° |
| 2026-05-06 16:02 | 38.23391 | 13.23252 | 0 ft | 225 kts | 51° |
| 2026-05-06 16:02 | 38.24373 | 13.24801 | 0 ft | 228 kts | 50° |
| 2026-05-06 16:02 | 38.25376 | 13.26334 | 0 ft | 231 kts | 50° |
| 2026-05-06 16:03 | 38.26401 | 13.27877 | 0 ft | 233 kts | 49° |
| 2026-05-06 16:03 | 38.27441 | 13.29432 | 0 ft | 236 kts | 49° |
| 2026-05-06 16:03 | 38.28494 | 13.31002 | 0 ft | 238 kts | 50° |
| 2026-05-06 16:03 | 38.29244 | 13.32841 | 0 ft | 244 kts | 81° |
| 2026-05-06 16:04 | 38.28971 | 13.35090 | 0 ft | 278 kts | 121° |
| 2026-05-06 16:04 | 38.27766 | 13.37090 | 0 ft | 289 kts | 132° |
| 2026-05-06 16:04 | 38.26343 | 13.38874 | 0 ft | 299 kts | 147° |
| 2026-05-06 16:04 | 38.24406 | 13.39705 | 0 ft | 305 kts | 180° |
| 2026-05-06 16:05 | 38.22342 | 13.39082 | 0 ft | 311 kts | 206° |
| 2026-05-06 16:05 | 38.20480 | 13.37674 | 0 ft | 318 kts | 215° |
| 2026-05-06 16:05 | 38.18745 | 13.35982 | 0 ft | 324 kts | 220° |
| 2026-05-06 16:05 | 38.17088 | 13.34114 | 0 ft | 330 kts | 223° |
| 2026-05-06 16:06 | 38.15455 | 13.32160 | 0 ft | 335 kts | 224° |
| 2026-05-06 16:06 | 38.13806 | 13.30139 | 0 ft | 338 kts | 224° |
| 2026-05-06 16:06 | 38.12132 | 13.28079 | 0 ft | 342 kts | 224° |
| 2026-05-06 16:06 | 38.10486 | 13.26068 | 0 ft | 344 kts | 224° |
| 2026-05-06 16:07 | 38.08574 | 13.24246 | 0 ft | 346 kts | 204° |
| 2026-05-06 16:07 | 38.06229 | 13.23655 | 0 ft | 346 kts | 176° |
| 2026-05-06 16:07 | 38.03974 | 13.24450 | 0 ft | 346 kts | 150° |
| 2026-05-06 16:07 | 38.02222 | 13.26400 | 0 ft | 346 kts | 128° |
| 2026-05-06 16:08 | 38.00866 | 13.28897 | 0 ft | 345 kts | 122° |
| 2026-05-06 16:08 | 37.99671 | 13.31507 | 0 ft | 344 kts | 118° |
| 2026-05-06 16:08 | 37.98558 | 13.34201 | 0 ft | 342 kts | 116° |
| 2026-05-06 16:08 | 37.97535 | 13.36871 | 0 ft | 340 kts | 115° |
| 2026-05-06 16:09 | 37.96551 | 13.39584 | 0 ft | 337 kts | 114° |
| 2026-05-06 16:09 | 37.95608 | 13.42288 | 0 ft | 333 kts | 113° |
| 2026-05-06 16:09 | 37.94697 | 13.44984 | 0 ft | 332 kts | 113° |
| 2026-05-06 16:09 | 37.93792 | 13.47719 | 0 ft | 335 kts | 112° |
| 2026-05-06 16:10 | 37.92904 | 13.50450 | 0 ft | 341 kts | 112° |
| 2026-05-06 16:10 | 37.92015 | 13.53216 | 0 ft | 338 kts | 112° |
| 2026-05-06 16:10 | 37.91132 | 13.55983 | 0 ft | 346 kts | 112° |
| 2026-05-06 16:10 | 37.90244 | 13.58782 | 0 ft | 343 kts | 112° |
| 2026-05-06 16:11 | 37.89349 | 13.61615 | 0 ft | 349 kts | 112° |
| 2026-05-06 16:11 | 37.88435 | 13.64504 | 0 ft | 360 kts | 112° |
| 2026-05-06 16:11 | 37.87489 | 13.67486 | 0 ft | 371 kts | 112° |
| 2026-05-06 16:11 | 37.86541 | 13.70477 | 0 ft | 382 kts | 112° |
| 2026-05-06 16:12 | 37.85540 | 13.73642 | 0 ft | 393 kts | 112° |
| 2026-05-06 16:12 | 37.84523 | 13.76871 | 0 ft | 403 kts | 111° |
| 2026-05-06 16:12 | 37.83468 | 13.80222 | 0 ft | 413 kts | 111° |
| 2026-05-06 16:12 | 37.82410 | 13.83593 | 0 ft | 422 kts | 111° |
| 2026-05-06 16:13 | 37.81325 | 13.87054 | 0 ft | 430 kts | 111° |
| 2026-05-06 16:13 | 37.80247 | 13.90501 | 0 ft | 438 kts | 111° |
| 2026-05-06 16:13 | 37.79126 | 13.94092 | 0 ft | 445 kts | 111° |
| 2026-05-06 16:13 | 37.77975 | 13.97746 | 0 ft | 451 kts | 112° |
| 2026-05-06 16:14 | 37.76834 | 14.01301 | 0 ft | 456 kts | 112° |
| 2026-05-06 16:14 | 37.75634 | 14.05007 | 0 ft | 462 kts | 112° |
| 2026-05-06 16:14 | 37.74421 | 14.08732 | 0 ft | 466 kts | 112° |
| 2026-05-06 16:14 | 37.73193 | 14.12497 | 0 ft | 471 kts | 112° |
| 2026-05-06 16:15 | 37.71953 | 14.16298 | 0 ft | 474 kts | 112° |
| 2026-05-06 16:15 | 37.70706 | 14.20118 | 0 ft | 477 kts | 112° |
| 2026-05-06 16:15 | 37.69502 | 14.23807 | 0 ft | 476 kts | 112° |
| 2026-05-06 16:15 | 37.68253 | 14.27636 | 0 ft | 473 kts | 112° |
| 2026-05-06 16:16 | 37.66999 | 14.31478 | 0 ft | 472 kts | 112° |
| 2026-05-06 16:16 | 37.65786 | 14.35199 | 0 ft | 472 kts | 112° |
| 2026-05-06 16:16 | 37.64534 | 14.39043 | 0 ft | 473 kts | 112° |
| 2026-05-06 16:16 | 37.63308 | 14.42808 | 0 ft | 473 kts | 112° |
| 2026-05-06 16:17 | 37.62220 | 14.46140 | 0 ft | 473 kts | 112° |
| 2026-05-06 16:17 | 37.61290 | 14.48985 | 0 ft | 473 kts | 112° |
| 2026-05-06 16:17 | 37.60063 | 14.52737 | 0 ft | 473 kts | 112° |
| 2026-05-06 16:17 | 37.58809 | 14.56568 | 0 ft | 469 kts | 112° |
| 2026-05-06 16:18 | 37.57566 | 14.60367 | 0 ft | 471 kts | 112° |
| 2026-05-06 16:18 | 37.56345 | 14.64099 | 0 ft | 460 kts | 112° |
| 2026-05-06 16:18 | 37.55133 | 14.67805 | 0 ft | 456 kts | 112° |
| 2026-05-06 16:18 | 37.53925 | 14.71501 | 0 ft | 457 kts | 112° |
| 2026-05-06 16:19 | 37.52711 | 14.75210 | 0 ft | 459 kts | 112° |
| 2026-05-06 16:19 | 37.51544 | 14.78776 | 0 ft | 459 kts | 112° |
| 2026-05-06 16:19 | 37.50395 | 14.82284 | 0 ft | 459 kts | 112° |
| 2026-05-06 16:19 | 37.49213 | 14.85894 | 0 ft | 458 kts | 112° |
| 2026-05-06 16:20 | 37.48422 | 14.88309 | 0 ft | 458 kts | 112° |
| 2026-05-06 16:20 | 37.47260 | 14.91861 | 0 ft | 459 kts | 112° |
| 2026-05-06 16:20 | 37.46394 | 14.95667 | 0 ft | 459 kts | 99° |
| 2026-05-06 16:20 | 37.46112 | 14.99636 | 0 ft | 455 kts | 92° |
| 2026-05-06 16:21 | 37.46201 | 15.03480 | 0 ft | 450 kts | 85° |
| 2026-05-06 16:21 | 37.46566 | 15.07286 | 0 ft | 451 kts | 82° |
| 2026-05-06 16:21 | 37.47049 | 15.11150 | 0 ft | 452 kts | 80° |
| 2026-05-06 16:21 | 37.47586 | 15.15010 | 0 ft | 447 kts | 79° |
| 2026-05-06 16:22 | 37.48118 | 15.18658 | 0 ft | 447 kts | 79° |
| 2026-05-06 16:22 | 37.48677 | 15.22403 | 0 ft | 439 kts | 79° |
| 2026-05-06 16:22 | 37.49214 | 15.26021 | 0 ft | 431 kts | 79° |
| 2026-05-06 16:22 | 37.49750 | 15.29722 | 0 ft | 431 kts | 79° |
| 2026-05-06 16:23 | 37.50733 | 15.33201 | 0 ft | 432 kts | 60° |
| 2026-05-06 16:23 | 37.52678 | 15.36009 | 0 ft | 429 kts | 37° |
| 2026-05-06 16:23 | 37.55213 | 15.37885 | 0 ft | 426 kts | 26° |
| 2026-05-06 16:23 | 37.57870 | 15.39416 | 0 ft | 420 kts | 23° |
| 2026-05-06 16:24 | 37.60561 | 15.40809 | 0 ft | 419 kts | 21° |
| 2026-05-06 16:24 | 37.63244 | 15.42121 | 0 ft | 409 kts | 20° |
| 2026-05-06 16:24 | 37.65871 | 15.43380 | 0 ft | 411 kts | 20° |
| 2026-05-06 16:24 | 37.68531 | 15.44687 | 0 ft | 410 kts | 23° |
| 2026-05-06 16:25 | 37.71029 | 15.46258 | 0 ft | 408 kts | 28° |
| 2026-05-06 16:25 | 37.73477 | 15.48036 | 0 ft | 407 kts | 31° |
| 2026-05-06 16:25 | 37.75872 | 15.49908 | 0 ft | 407 kts | 32° |
| 2026-05-06 16:25 | 37.78238 | 15.51846 | 0 ft | 401 kts | 33° |
| 2026-05-06 16:26 | 37.80557 | 15.53811 | 0 ft | 402 kts | 34° |
| 2026-05-06 16:26 | 37.82807 | 15.55681 | 0 ft | 393 kts | 28° |
| 2026-05-06 16:26 | 37.85247 | 15.57058 | 0 ft | 381 kts | 20° |
| 2026-05-06 16:26 | 37.87582 | 15.58095 | 0 ft | 353 kts | 18° |
| 2026-05-06 16:27 | 37.89805 | 15.58967 | 0 ft | 335 kts | 16° |
| 2026-05-06 16:27 | 37.91919 | 15.59729 | 0 ft | 322 kts | 15° |
| 2026-05-06 16:27 | 37.94027 | 15.60438 | 0 ft | 310 kts | 14° |
| 2026-05-06 16:27 | 37.96059 | 15.61088 | 0 ft | 299 kts | 13° |
| 2026-05-06 16:28 | 37.97874 | 15.61647 | 0 ft | 290 kts | 13° |
| 2026-05-06 16:28 | 37.99756 | 15.62212 | 0 ft | 285 kts | 13° |
| 2026-05-06 16:28 | 38.01649 | 15.62769 | 0 ft | 283 kts | 12° |
| 2026-05-06 16:28 | 38.03459 | 15.63296 | 0 ft | 281 kts | 12° |
| 2026-05-06 16:29 | 38.05208 | 15.63809 | 0 ft | 283 kts | 13° |
| 2026-05-06 16:29 | 38.07054 | 15.64372 | 0 ft | 279 kts | 13° |
| 2026-05-06 16:29 | 38.08914 | 15.64966 | 0 ft | 277 kts | 14° |
| 2026-05-06 16:29 | 38.10779 | 15.65584 | 0 ft | 276 kts | 14° |
| 2026-05-06 16:30 | 38.12625 | 15.66216 | 0 ft | 274 kts | 15° |
| 2026-05-06 16:30 | 38.13811 | 15.66629 | 0 ft | 273 kts | 15° |
| 2026-05-06 16:30 | 38.16217 | 15.67470 | 0 ft | 270 kts | 15° |
| 2026-05-06 16:30 | 38.17933 | 15.68071 | 0 ft | 270 kts | 15° |
| 2026-05-06 16:31 | 38.19692 | 15.68689 | 0 ft | 267 kts | 15° |
| 2026-05-06 16:31 | 38.21477 | 15.69225 | 0 ft | 268 kts | 5° |
| 2026-05-06 16:31 | 38.23336 | 15.69239 | 0 ft | 268 kts | 354° |
| 2026-05-06 16:31 | 38.25176 | 15.68904 | 0 ft | 267 kts | 348° |
| 2026-05-06 16:32 | 38.26871 | 15.68375 | 0 ft | 265 kts | 343° |
| 2026-05-06 16:32 | 38.28407 | 15.67422 | 0 ft | 263 kts | 316° |
| 2026-05-06 16:32 | 38.29251 | 15.65583 | 0 ft | 242 kts | 286° |
| 2026-05-06 16:32 | 38.29517 | 15.63640 | 0 ft | 217 kts | 274° |
| 2026-05-06 16:33 | 38.29523 | 15.61850 | 0 ft | 195 kts | 266° |
| 2026-05-06 16:33 | 38.29348 | 15.60180 | 0 ft | 189 kts | 258° |
| 2026-05-06 16:33 | 38.29023 | 15.58561 | 0 ft | 188 kts | 253° |
| 2026-05-06 16:34 | 38.27755 | 15.55845 | 0 ft | 187 kts | 203° |
| 2026-05-06 16:34 | 38.26659 | 15.55713 | 0 ft | 170 kts | 175° |
| 2026-05-06 16:34 | 38.25680 | 15.55882 | 0 ft | 158 kts | 170° |
| 2026-05-06 16:34 | 38.24726 | 15.56154 | 0 ft | 152 kts | 165° |
| 2026-05-06 16:35 | 38.23691 | 15.56544 | 0 ft | 163 kts | 162° |
| 2026-05-06 16:35 | 38.22629 | 15.57019 | 0 ft | 173 kts | 160° |
| 2026-05-06 16:35 | 38.21568 | 15.57544 | 0 ft | 168 kts | 158° |
| 2026-05-06 16:35 | 38.20521 | 15.58091 | 0 ft | 159 kts | 158° |
| 2026-05-06 16:36 | 38.19488 | 15.58646 | 0 ft | 167 kts | 157° |
| 2026-05-06 16:36 | 38.18352 | 15.59252 | 0 ft | 194 kts | 158° |
| 2026-05-06 16:36 | 38.17124 | 15.59889 | 0 ft | 185 kts | 158° |
| 2026-05-06 16:36 | 38.16087 | 15.60423 | 0 ft | 155 kts | 159° |
| 2026-05-06 16:37 | 38.15177 | 15.60885 | 0 ft | 144 kts | 161° |
| 2026-05-06 16:37 | 38.14180 | 15.61170 | 0 ft | 159 kts | 173° |
| 2026-05-06 16:37 | 38.13134 | 15.61353 | 0 ft | 151 kts | 169° |
| 2026-05-06 16:37 | 38.12206 | 15.61791 | 0 ft | 145 kts | 152° |
| 2026-05-06 16:38 | 38.11371 | 15.62404 | 0 ft | 131 kts | 153° |
| 2026-05-06 16:38 | 38.10578 | 15.62921 | 0 ft | 130 kts | 154° |
| 2026-05-06 16:38 | 38.09763 | 15.63441 | 0 ft | 136 kts | 153° |
| 2026-05-06 16:38 | 38.08968 | 15.63966 | 0 ft | 124 kts | 153° |
| 2026-05-06 16:39 | 38.08244 | 15.64447 | 0 ft | 120 kts | 153° |
| 2026-05-06 16:39 | 38.07497 | 15.64926 | 0 ft | 116 kts | 154° |
| 2026-05-06 16:39 | 38.06989 | 15.65229 | 0 ft | 64 kts | 158° |
| 2026-05-06 16:39 | 38.06779 | 15.65375 | 0 ft | 14 kts | 82° |
| 2026-05-06 16:40 | 38.06844 | 15.65343 | 0 ft | 20 kts | 322° |
| 2026-05-06 16:40 | 38.07008 | 15.65210 | 0 ft | 33 kts | 334° |
| 2026-05-06 16:40 | 38.07186 | 15.65103 | 0 ft | 23 kts | 335° |
| 2026-05-06 16:40 | 38.07298 | 15.65140 | 0 ft | 15 kts | 54° |
| 2026-05-06 16:41 | 38.07342 | 15.65235 | 0 ft | 11 kts | 59° |
| 2026-05-06 16:41 | 38.07367 | 15.65298 | 0 ft | 0 kts | 66° |